Terminal Aerodrome Forecast
Issued by NWS Charleston, WV

Current Version | Previous Version | Text Only | Print | Product List | Glossary Off
Versions: 1 2 3 4 5 6 7 8 9 10 11 12 13 14 15 16 17 18 19 20 21 22 23 24 25 26 27 28 29 30

892
FTUS41 KRLX 220814 AAA
TAFEKN
TAF AMD
KEKN 220814Z 2208/2306 00000KT 1/2SM FG VV002
     FM221300 16006KT 5SM -SHRA OVC015
     FM221700 21009G19KT 2SM SHRA OVC015
     FM222000 26006KT 5SM SHRA OVC015
     FM222200 25004KT 6SM -SHRA BR OVC007=

USA.gov is the U.S. government's official web portal to all federal, state and local government web resources and services.